aviador You're here:

KCSM Decoded Metar

CLINTON in OK, USA
Report Time2017-08-16 18:53:00
UTC Time2017-08-16 19:32:45
Flight Rules vfr VFR
Wind190° at 11 kt
W.Decomp.*RWY 17: 10.8 kt HW 2.3 kt RCW
W.Rank190° ranks 3
Current wind is below 190° avg. (13.7)
Visibility9999 m
Phenomena:N/A
Clouds:Scattered 040 Hf
Expected CloudBase > 4,000 ft AGL from Temp-Dew spread
CeilingNone
Temp31°C (ISA +20)
Dew Point21°C (55% RH)
Heat Index33.7°C
QNH1012 hPa
Density Alt4,557 ft
Elevation1,929 ft
Report Wrong Elevation
Raw Report
KCSM 161853Z 19011KT 10SM SCT040 31/21 A2989 RMK AO2 SLP096
T03060211=

Extra information for KCSM:More info

Metar Taf Metar & Taf Last 4 Metars F.Rules Stats Wind Profile Meteogram Temp Stats Airport Information Weather charts Add Link Nearby VenuesMetar ALERT Operation Metar Decoded Social comments

AIRNAV info for KCSM